Terminal Aerodrome Forecast
Issued by NWS

Home | Current Version | Previous Version | Graphics & Text | Print | Product List | Glossary On
Versions: 1 2 3 4 5 6 7 8 9 10 11 12 13 14 15 16 17 18 19 20 21 22 23
000
FTUS43 KABR 260700 AAA
TAFATY
TAF AMD
KATY 260724Z 2607/2706 07009KT P6SM -SN OVC014
      TEMPO 2609/2611 2SM -SN
     FM261100 36015KT 3SM -SN BR OVC006
     FM261300 35018G29KT 6SM -SN OVC015
     FM261800 34014G25KT P6SM OVC025=

USA.gov is the U.S. government's official web portal to all federal, state and local government web resources and services.